Time;durP1;ratioP1;P1;durP2;ratioP2;P2;SDS_P1;SDS_P2;PMS_P1;PMS_P2;Temp;Humidity;BMP_temperature;BMP_pressure;BME280_temperature;BME280_humidity;BME280_pressure;Samples;Min_cycle;Max_cycle;Signal;HPM_P1;HPM_P2
2023/06/30 00:01:01;;;;;;;3.20;3.00;;;;;;;21.83;58.29;98431.94;5136127;27;42957;-78
2023/06/30 00:03:29;;;;;;;3.20;3.00;;;;;;;21.80;58.33;98431.47;5135659;27;41109;-79
2023/06/30 00:05:56;;;;;;;3.20;2.90;;;;;;;21.75;58.34;98432.00;5119017;27;40331;-78
2023/06/30 00:08:24;;;;;;;3.50;3.20;;;;;;;21.72;58.50;98432.34;5118488;27;41710;-79
2023/06/30 00:10:51;;;;;;;3.37;3.07;;;;;;;21.70;58.48;98431.69;5135697;27;44254;-79
2023/06/30 00:13:20;;;;;;;2.97;2.77;;;;;;;21.67;58.82;98426.63;5134951;27;41366;-78
2023/06/30 00:15:48;;;;;;;2.83;2.63;;;;;;;21.64;58.47;98432.38;5154033;27;40945;-80
2023/06/30 00:18:15;;;;;;;3.30;3.00;;;;;;;21.61;59.03;98427.34;5118190;27;40654;-78
2023/06/30 00:20:43;;;;;;;4.27;3.13;;;;;;;21.58;58.93;98433.09;5154083;27;42671;-79
2023/06/30 00:23:11;;;;;;;3.17;2.97;;;;;;;21.55;58.93;98425.34;5135313;27;43464;-79
2023/06/30 00:25:39;;;;;;;3.30;3.00;;;;;;;21.43;59.04;98402.50;5118325;27;39460;-78
2023/06/30 00:28:06;;;;;;;3.20;2.90;;;;;;;21.39;59.32;98395.78;5118312;27;41187;-78
2023/06/30 00:30:36;;;;;;;3.50;3.20;;;;;;;21.50;59.14;98420.50;5135414;27;42396;-79
2023/06/30 00:33:04;;;;;;;4.03;3.03;;;;;;;21.38;59.39;98394.97;5117992;27;41335;-78
2023/06/30 00:35:32;;;;;;;3.17;2.97;;;;;;;21.53;59.38;98419.28;5135239;27;39952;-79
2023/06/30 00:37:59;;;;;;;2.90;2.70;;;;;;;21.52;59.60;98423.00;5134957;27;41582;-79
2023/06/30 00:40:29;;;;;;;3.50;3.20;;;;;;;21.47;59.63;98420.84;5118101;27;41818;-79
2023/06/30 00:42:58;;;;;;;3.63;3.30;;;;;;;21.48;59.66;98417.16;5135130;27;43245;-78
2023/06/30 00:45:26;;;;;;;3.33;3.03;;;;;;;21.45;60.08;98411.25;5118010;27;39776;-79
2023/06/30 00:47:55;;;;;;;3.57;3.00;;;;;;;21.41;60.38;98404.53;5135214;27;41313;-79
2023/06/30 00:50:23;;;;;;;3.40;3.10;;;;;;;21.37;60.65;98404.06;5117856;27;42723;-78
2023/06/30 00:52:53;;;;;;;3.37;3.07;;;;;;;21.34;60.30;98404.41;5117800;27;42983;-78
2023/06/30 00:55:21;;;;;;;3.23;3.03;;;;;;;21.31;60.44;98404.75;5117787;27;40966;-79
2023/06/30 00:57:48;;;;;;;3.90;3.50;;;;;;;21.27;60.83;98398.03;5117615;27;41883;-79
2023/06/30 01:00:17;;;;;;;3.53;3.13;;;;;;;21.25;60.47;98396.53;5117881;27;41591;-78
2023/06/30 01:02:52;;;;;;;3.40;3.10;;;;;;;21.21;60.69;98387.13;5153313;27;42366;-78
2023/06/30 01:05:29;;;;;;;3.63;3.33;;;;;;;21.13;60.69;98379.91;5117800;27;40373;-79
2023/06/30 01:08:02;;;;;;;3.80;3.50;;;;;;;21.16;61.08;98385.75;5118086;27;42114;-78
2023/06/30 01:10:32;;;;;;;3.70;3.30;;;;;;;21.07;60.78;98365.25;5130690;27;42707;-78
2023/06/30 01:13:02;;;;;;;3.20;2.90;;;;;;;21.12;60.76;98379.06;5116932;27;41502;-80
2023/06/30 01:15:30;;;;;;;3.10;2.80;;;;;;;21.09;61.06;98374.00;5117419;27;39961;-78
2023/06/30 01:18:01;;;;;;;2.63;2.33;;;;;;;21.06;60.83;98366.28;5134695;27;42346;-79
2023/06/30 01:20:34;;;;;;;2.87;2.67;;;;;;;21.05;61.09;98369.97;5117795;27;41739;-79
2023/06/30 01:23:08;;;;;;;3.17;2.87;;;;;;;21.03;61.13;98365.78;5152804;27;42137;-79
2023/06/30 01:25:36;;;;;;;3.27;2.97;;;;;;;20.98;61.39;98371.69;5117443;27;39802;-78
2023/06/30 01:28:04;;;;;;;3.50;3.20;;;;;;;20.82;61.73;98347.50;5134601;27;40786;-79
2023/06/30 01:30:33;;;;;;;3.90;3.60;;;;;;;20.90;61.61;98362.78;5117070;27;42806;-80
2023/06/30 01:33:01;;;;;;;3.13;2.93;;;;;;;20.86;61.79;98367.69;5116971;27;41306;-78
2023/06/30 01:35:31;;;;;;;2.93;2.73;;;;;;;20.83;62.00;98362.66;5117285;27;39906;-79
2023/06/30 01:38:02;;;;;;;4.17;3.77;;;;;;;20.78;62.11;98362.31;5117002;27;40883;-79
2023/06/30 01:40:30;;;;;;;3.30;3.00;;;;;;;20.72;62.18;98357.63;5134628;27;41894;-78
2023/06/30 01:42:58;;;;;;;3.43;3.13;;;;;;;20.66;62.44;98352.94;5134390;27;41163;-79
2023/06/30 01:45:27;;;;;;;3.97;3.50;;;;;;;20.60;62.51;98346.41;5134602;27;41465;-79
2023/06/30 01:47:55;;;;;;;3.37;3.17;;;;;;;20.64;62.14;98357.66;5152354;27;41749;-78
2023/06/30 01:50:24;;;;;;;3.40;3.10;;;;;;;20.58;62.13;98352.97;5117171;27;42370;-79
2023/06/30 01:52:53;;;;;;;3.50;3.20;;;;;;;20.59;62.40;98351.94;5116768;27;41189;-79
2023/06/30 01:55:22;;;;;;;3.30;3.00;;;;;;;20.59;62.26;98354.63;5116999;27;41265;-79
2023/06/30 01:57:52;;;;;;;3.20;2.90;;;;;;;20.54;62.49;98357.84;5134212;27;41203;-79
2023/06/30 02:00:20;;;;;;;3.50;3.20;;;;;;;20.54;62.33;98362.38;5117155;27;42911;-79
2023/06/30 02:02:48;;;;;;;3.07;2.87;;;;;;;20.53;62.75;98366.06;5116661;27;41325;-78
2023/06/30 02:05:16;;;;;;;4.03;3.63;;;;;;;20.49;62.82;98357.53;5116944;27;39967;-79
2023/06/30 02:07:43;;;;;;;3.60;3.30;;;;;;;20.48;62.88;98360.38;5116488;27;41832;-79
2023/06/30 02:10:12;;;;;;;3.47;3.17;;;;;;;20.34;62.92;98338.50;5117080;27;41594;-79
2023/06/30 02:12:40;;;;;;;3.27;3.07;;;;;;;20.42;63.06;98345.75;5115919;27;41065;-79
2023/06/30 02:15:09;;;;;;;4.10;3.30;;;;;;;20.39;63.02;98351.50;5134016;27;41659;-79
2023/06/30 02:17:37;;;;;;;3.33;3.03;;;;;;;20.27;63.12;98331.31;5116685;27;41478;-79
2023/06/30 02:20:07;;;;;;;3.40;3.10;;;;;;;20.30;63.05;98337.16;5116869;27;41941;-78
2023/06/30 02:22:35;;;;;;;3.50;3.20;;;;;;;20.31;63.17;98352.28;5119855;27;41097;-79
2023/06/30 02:25:03;;;;;;;3.70;3.40;;;;;;;20.31;63.29;98346.91;5137732;27;40822;-78
2023/06/30 02:27:32;;;;;;;3.63;3.33;;;;;;;20.30;63.51;98344.38;5120066;27;40656;-78
2023/06/30 02:30:04;;;;;;;3.73;3.43;;;;;;;20.29;63.53;98348.94;5137393;27;44109;-80
2023/06/30 02:32:32;;;;;;;3.90;3.53;;;;;;;20.20;63.64;98333.81;5154402;27;42974;-79
2023/06/30 02:35:00;;;;;;;3.77;3.07;;;;;;;20.28;63.74;98347.25;5120259;27;40203;-78
2023/06/30 02:37:28;;;;;;;3.33;3.13;;;;;;;20.27;63.46;98355.50;5137051;27;42696;-79
2023/06/30 02:39:56;;;;;;;3.87;3.57;;;;;;;20.24;63.83;98356.69;5155862;27;44000;-79
2023/06/30 02:42:24;;;;;;;3.53;3.23;;;;;;;20.20;63.96;98355.31;5137249;27;42350;-79
2023/06/30 02:44:53;;;;;;;4.13;3.73;;;;;;;20.20;64.70;98346.41;5137359;27;39896;-78
2023/06/30 02:47:22;;;;;;;4.23;3.83;;;;;;;20.15;65.37;98346.09;5137544;27;41569;-79
2023/06/30 02:49:50;;;;;;;3.87;3.57;;;;;;;20.11;65.19;98339.38;5120059;27;41745;-79
2023/06/30 02:52:19;;;;;;;4.30;3.97;;;;;;;20.09;65.09;98336.84;5119631;27;41271;-81
2023/06/30 02:54:47;;;;;;;3.93;3.53;;;;;;;20.08;64.89;98335.16;5119855;27;41345;-79
2023/06/30 02:57:14;;;;;;;3.80;3.40;;;;;;;20.06;64.86;98331.81;5136928;27;42758;-79
2023/06/30 02:59:42;;;;;;;3.37;3.07;;;;;;;20.05;64.93;98335.50;5136836;27;42669;-79
2023/06/30 03:02:11;;;;;;;3.43;3.13;;;;;;;20.02;65.28;98335.84;5136792;27;42366;-80
2023/06/30 03:04:39;;;;;;;3.70;3.37;;;;;;;20.00;64.87;98337.88;5137099;27;41233;-80
2023/06/30 03:07:06;;;;;;;3.60;3.30;;;;;;;19.97;64.95;98348.94;5136994;27;41854;-79
2023/06/30 03:09:34;;;;;;;3.60;3.30;;;;;;;19.82;65.14;98323.72;5137032;27;42947;-78
2023/06/30 03:12:02;;;;;;;3.83;3.50;;;;;;;19.92;65.18;98335.16;5119263;27;41316;-79
2023/06/30 03:14:30;;;;;;;4.07;3.73;;;;;;;19.89;65.59;98330.13;5119257;27;39985;-80
2023/06/30 03:16:57;;;;;;;3.60;3.30;;;;;;;19.86;65.29;98339.38;5119349;27;41842;-80
2023/06/30 03:19:26;;;;;;;4.33;3.63;;;;;;;19.83;65.57;98326.25;5136704;27;42936;-78
2023/06/30 03:21:54;;;;;;;3.90;3.60;;;;;;;19.80;65.33;98339.19;5119060;27;41605;-79
2023/06/30 03:24:22;;;;;;;3.23;2.93;;;;;;;19.65;65.72;98313.00;5119360;27;39749;-80
2023/06/30 03:26:50;;;;;;;5.23;4.80;;;;;;;19.75;70.31;98306.63;5154962;27;41766;-79
2023/06/30 03:29:23;;;;;;;5.33;4.83;;;;;;;19.79;72.21;98324.91;5119547;27;43187;-80
2023/06/30 03:31:51;;;;;;;4.77;4.37;;;;;;;19.78;72.20;98328.59;5136495;27;42309;-79
2023/06/30 03:34:19;;;;;;;5.30;4.80;;;;;;;19.75;71.12;98337.00;5118897;27;40248;-79
2023/06/30 03:36:49;;;;;;;4.93;4.40;;;;;;;19.77;70.97;98342.22;5118877;27;41764;-80
2023/06/30 03:39:17;;;;;;;5.10;4.60;;;;;;;19.82;69.74;98342.53;5136633;27;42872;-80
2023/06/30 03:41:46;;;;;;;4.27;3.93;;;;;;;19.70;69.25;98332.13;5136023;27;42285;-79
2023/06/30 03:44:13;;;;;;;4.37;4.07;;;;;;;19.84;68.73;98353.97;5136211;27;41700;-79
2023/06/30 03:46:41;;;;;;;3.93;3.63;;;;;;;19.83;68.33;98349.59;5118937;27;41705;-80
2023/06/30 03:49:09;;;;;;;4.37;3.97;;;;;;;19.84;68.44;98352.13;5136731;27;43713;-79
2023/06/30 03:51:39;;;;;;;4.30;3.90;;;;;;;19.84;68.28;98356.66;5135894;27;42769;-78
2023/06/30 03:54:09;;;;;;;4.13;3.73;;;;;;;19.84;68.38;98353.97;5119045;27;41040;-79
2023/06/30 03:56:37;;;;;;;4.77;3.63;;;;;;;19.83;68.85;98352.28;5118932;27;42068;-80
2023/06/30 03:59:04;;;;;;;3.90;3.60;;;;;;;19.86;68.36;98347.44;5136446;27;42918;-79
2023/06/30 04:01:33;;;;;;;4.40;4.00;;;;;;;19.85;68.25;98337.69;5118779;27;41312;-79
2023/06/30 04:04:02;;;;;;;3.90;3.60;;;;;;;19.91;68.10;98344.22;5118720;27;41981;-79
2023/06/30 04:06:30;;;;;;;4.00;3.60;;;;;;;19.92;68.03;98340.53;5135627;27;41843;-78
2023/06/30 04:08:58;;;;;;;3.87;3.43;;;;;;;19.91;67.91;98333.47;5154421;27;42943;-80
2023/06/30 04:11:27;;;;;;;4.30;4.00;;;;;;;20.00;68.17;98337.88;5135415;27;42078;-79
2023/06/30 04:13:55;;;;;;;4.17;3.87;;;;;;;20.04;68.15;98333.81;5135567;27;41098;-79
2023/06/30 04:16:23;;;;;;;4.00;3.70;;;;;;;20.07;67.72;98338.84;5135328;27;41330;-79
2023/06/30 04:18:52;;;;;;;4.73;4.23;;;;;;;20.11;67.97;98334.00;5135983;27;43763;-80
2023/06/30 04:21:20;;;;;;;4.33;3.93;;;;;;;20.13;67.50;98327.44;5135557;27;42417;-79
2023/06/30 04:23:48;;;;;;;4.23;3.90;;;;;;;20.17;67.79;98328.78;5118581;27;40960;-79
2023/06/30 04:26:16;;;;;;;4.00;3.60;;;;;;;20.29;67.70;98331.94;5118390;27;41860;-80
2023/06/30 04:28:46;;;;;;;4.13;3.83;;;;;;;20.34;68.12;98329.59;5135305;27;43238;-79
2023/06/30 04:31:14;;;;;;;4.00;3.63;;;;;;;20.38;67.96;98334.50;5135497;27;42653;-80
2023/06/30 04:33:41;;;;;;;4.33;3.93;;;;;;;20.46;68.30;98335.50;5118112;27;39975;-79
2023/06/30 04:36:09;;;;;;;4.33;3.93;;;;;;;20.51;67.97;98331.28;5118313;27;42160;-79
2023/06/30 04:38:36;;;;;;;4.30;3.90;;;;;;;20.59;68.05;98325.03;5135241;27;41652;-80
2023/06/30 04:41:04;;;;;;;4.13;3.73;;;;;;;20.66;67.63;98326.88;5153716;27;41897;-78
2023/06/30 04:43:32;;;;;;;4.70;4.13;;;;;;;20.73;67.41;98327.88;5135200;27;40960;-79
2023/06/30 04:46:01;;;;;;;4.40;4.00;;;;;;;20.82;67.86;98322.44;5134061;27;40633;-79
2023/06/30 04:48:30;;;;;;;4.63;4.23;;;;;;;20.80;67.94;98315.38;5135211;27;43826;-80
2023/06/30 04:50:57;;;;;;;4.47;4.07;;;;;;;20.94;67.94;98321.91;5135142;27;43300;-78
2023/06/30 04:53:26;;;;;;;4.50;4.10;;;;;;;21.03;68.30;98326.22;5117668;27;40210;-79
2023/06/30 04:55:54;;;;;;;4.23;3.87;;;;;;;21.09;67.96;98330.94;5135006;27;42468;-79
2023/06/30 04:58:22;;;;;;;4.50;4.10;;;;;;;21.05;68.43;98308.06;5134710;27;41948;-79
2023/06/30 05:00:49;;;;;;;5.03;4.60;;;;;;;21.12;68.25;98302.81;5117832;27;41008;-79
2023/06/30 05:03:20;;;;;;;6.67;4.40;;;;;;;21.32;67.95;98324.78;5135215;27;40959;-80
2023/06/30 05:05:47;;;;;;;5.87;5.00;;;;;;;21.37;68.14;98311.63;5134900;27;41051;-79
2023/06/30 05:08:15;;;;;;;5.30;4.80;;;;;;;21.57;67.83;98318.22;5117093;27;42143;-79
2023/06/30 05:10:43;;;;;;;5.33;4.83;;;;;;;21.74;67.18;98324.38;5134635;27;41226;-80
2023/06/30 05:13:11;;;;;;;5.10;4.70;;;;;;;21.92;67.01;98313.25;5152679;27;40856;-79
2023/06/30 05:15:38;;;;;;;5.27;4.80;;;;;;;22.12;66.67;98314.50;5153291;27;42767;-80
2023/06/30 05:18:07;;;;;;;5.83;4.87;;;;;;;22.27;66.48;98309.94;5117385;27;41955;-79
2023/06/30 05:20:39;;;;;;;5.13;4.63;;;;;;;22.39;65.94;98308.47;5117616;27;41384;-79
2023/06/30 05:23:06;;;;;;;4.90;4.50;;;;;;;22.52;65.93;98314.06;5134562;27;39807;-79
2023/06/30 05:25:34;;;;;;;5.13;4.63;;;;;;;22.53;65.41;98299.56;5134687;27;40774;-80
2023/06/30 05:28:03;;;;;;;4.73;4.33;;;;;;;22.55;64.95;98292.13;5117186;27;42819;-80
2023/06/30 05:30:30;;;;;;;5.80;5.17;;;;;;;22.78;65.04;98312.81;5117311;27;40859;-80
2023/06/30 05:32:58;;;;;;;5.27;4.77;;;;;;;22.89;64.75;98321.28;5134720;27;40864;-80
2023/06/30 05:35:25;;;;;;;5.57;5.07;;;;;;;22.61;64.58;98262.72;5134701;27;42183;-80
2023/06/30 05:37:56;;;;;;;5.20;4.57;;;;;;;23.03;64.17;98321.47;5134222;27;41891;-79
2023/06/30 05:40:23;;;;;;;5.37;4.77;;;;;;;23.10;64.00;98311.59;5071383;27;41638;-83
2023/06/30 05:42:51;;;;;;;5.80;5.30;;;;;;;23.19;63.79;98318.56;5134684;27;41251;-84
2023/06/30 05:45:19;;;;;;;5.17;4.67;;;;;;;23.25;63.75;98324.03;5134159;27;41967;-81
2023/06/30 05:47:47;;;;;;;5.63;5.13;;;;;;;23.23;63.18;98315.31;5117639;27;41818;-81
2023/06/30 05:50:14;;;;;;;5.03;4.53;;;;;;;23.37;63.34;98321.69;5128221;27;42286;-80
2023/06/30 05:52:42;;;;;;;5.60;5.10;;;;;;;23.42;62.89;98326.53;5152440;27;41712;-84
2023/06/30 05:55:11;;;;;;;5.13;4.70;;;;;;;23.44;62.56;98319.06;5152541;27;41866;-83
2023/06/30 05:57:39;;;;;;;5.80;5.30;;;;;;;23.40;62.58;98315.06;5152278;27;42495;-87
2023/06/30 06:00:08;;;;;;;5.20;4.73;;;;;;;23.28;62.48;98296.66;5117124;27;41569;-86
2023/06/30 06:02:43;;;;;;;5.53;5.00;;;;;;;23.46;62.73;98314.31;5117230;27;41360;-89
2023/06/30 06:05:11;;;;;;;5.97;5.47;;;;;;;23.45;62.48;98309.94;5134027;27;40496;-87
2023/06/30 06:07:40;;;;;;;5.00;4.53;;;;;;;23.59;62.28;98306.38;5116686;27;41698;-88
2023/06/30 06:10:08;;;;;;;6.53;5.93;;;;;;;23.67;61.76;98327.88;5116708;27;41962;-79
2023/06/30 06:12:39;;;;;;;5.80;5.17;;;;;;;23.68;61.71;98323.31;5133382;27;40890;-81
2023/06/30 06:15:08;;;;;;;4.50;4.10;;;;;;;23.55;61.58;98305.09;5116570;27;40533;-82
2023/06/30 06:17:35;;;;;;;5.33;4.83;;;;;;;23.69;61.42;98333.94;5133387;27;41938;-79
2023/06/30 06:20:04;;;;;;;5.37;4.57;;;;;;;23.66;61.58;98337.00;5133362;27;41112;-86
2023/06/30 06:22:31;;;;;;;5.77;4.87;;;;;;;23.50;61.69;98323.69;5134023;27;40902;-82
2023/06/30 06:24:59;;;;;;;4.77;4.23;;;;;;;23.52;62.27;98332.50;5133663;27;42897;-82
2023/06/30 06:27:28;;;;;;;6.03;5.03;;;;;;;23.55;62.23;98345.63;5133827;27;42701;-84
2023/06/30 06:29:58;;;;;;;6.00;4.63;;;;;;;23.42;62.37;98326.53;5151482;27;42062;-83
2023/06/30 06:32:25;;;;;;;7.23;5.47;;;;;;;23.38;62.73;98341.44;5116369;27;39984;-85
2023/06/30 06:34:53;;;;;;;4.67;4.27;;;;;;;23.12;62.65;98309.56;5116249;27;42064;-82
2023/06/30 06:37:20;;;;;;;5.13;4.60;;;;;;;23.27;62.99;98334.66;5116470;27;44372;-81
2023/06/30 06:39:48;;;;;;;5.10;4.70;;;;;;;23.33;62.95;98343.88;5152060;27;42172;-84
2023/06/30 06:42:15;;;;;;;6.80;4.67;;;;;;;23.33;63.05;98352.81;5152236;27;41082;-83
2023/06/30 06:44:44;;;;;;;4.90;4.50;;;;;;;23.36;63.42;98344.34;5116172;27;40599;-84
2023/06/30 06:47:49;;;;;;;7.23;4.47;;;;;;;23.46;63.23;98335.94;5133214;27;41850;-79
2023/06/30 06:50:20;;;;;;;4.70;4.20;;;;;;;23.61;62.88;98342.19;5120041;27;43112;-81
2023/06/30 06:52:47;;;;;;;5.30;4.50;;;;;;;23.79;62.85;98341.72;5132343;27;40992;-79
2023/06/30 06:55:15;;;;;;;5.30;4.80;;;;;;;23.99;62.31;98340.88;5116144;27;41692;-83
2023/06/30 06:57:48;;;;;;;4.87;4.33;;;;;;;24.22;61.71;98345.28;5151920;27;43693;-85
2023/06/30 07:00:17;;;;;;;6.87;6.17;;;;;;;24.46;60.84;98347.59;5116438;27;41506;-82
2023/06/30 07:02:44;;;;;;;5.37;4.23;;;;;;;24.66;60.10;98336.88;5116054;27;39877;-83
2023/06/30 07:05:12;;;;;;;5.47;4.30;;;;;;;25.03;59.84;98346.53;5133360;27;41988;-86
2023/06/30 07:07:41;;;;;;;5.37;4.47;;;;;;;25.55;58.52;98366.78;5133578;27;42611;-81
2023/06/30 07:10:10;;;;;;;5.20;4.70;;;;;;;25.77;57.71;98357.50;5119659;27;41239;-80
2023/06/30 07:12:37;;;;;;;5.77;4.60;;;;;;;25.84;56.73;98358.31;5136147;27;40075;-77
2023/06/30 07:15:07;;;;;;;5.40;4.87;;;;;;;25.81;56.51;98357.94;5118862;27;40764;-80
2023/06/30 07:17:34;;;;;;;4.93;4.43;;;;;;;25.97;56.40;98374.63;5136210;27;42697;-81
2023/06/30 07:20:02;;;;;;;4.87;4.47;;;;;;;26.21;56.12;98375.94;5119020;27;42040;-82
2023/06/30 07:22:30;;;;;;;5.13;4.63;;;;;;;26.55;55.52;98369.53;5136593;27;41964;-79
2023/06/30 07:25:00;;;;;;;6.13;4.93;;;;;;;26.95;54.54;98367.63;5154714;27;42046;-86
2023/06/30 07:27:28;;;;;;;5.23;4.73;;;;;;;27.27;53.29;98371.31;5118943;27;41389;-78
2023/06/30 07:29:55;;;;;;;6.67;5.43;;;;;;;27.12;52.57;98340.81;5135808;27;41502;-79
2023/06/30 07:32:23;;;;;;;6.23;4.80;;;;;;;27.53;52.05;98376.66;5135988;27;41152;-79
2023/06/30 07:34:51;;;;;;;5.73;5.17;;;;;;;27.70;52.13;98376.16;5135660;27;43077;-80
2023/06/30 07:37:18;;;;;;;4.83;4.43;;;;;;;27.80;51.25;98382.00;5154473;27;43427;-84
2023/06/30 07:39:46;;;;;;;6.17;5.37;;;;;;;27.90;51.38;98366.03;5136085;27;43195;-79
2023/06/30 07:42:15;;;;;;;5.47;4.53;;;;;;;28.32;50.56;98383.56;5135951;27;40367;-80
2023/06/30 07:44:43;;;;;;;7.00;4.77;;;;;;;28.56;49.63;98379.22;5135734;27;40586;-82
2023/06/30 07:47:11;;;;;;;5.03;4.47;;;;;;;28.68;49.08;98369.25;5136057;27;43057;-81
2023/06/30 07:49:39;;;;;;;5.33;4.53;;;;;;;29.00;48.73;98385.53;5154538;27;42439;-84
2023/06/30 07:52:08;;;;;;;4.63;4.23;;;;;;;29.29;47.47;98382.91;5119341;27;40789;-80
2023/06/30 07:54:35;;;;;;;4.33;3.90;;;;;;;29.36;46.13;98385.56;5118733;27;40449;-84
2023/06/30 07:57:03;;;;;;;4.57;4.17;;;;;;;29.39;46.39;98400.66;5118682;27;42023;-80
2023/06/30 07:59:33;;;;;;;5.03;4.23;;;;;;;29.18;46.74;98385.53;5118412;27;42251;-85
2023/06/30 08:02:00;;;;;;;4.80;4.40;;;;;;;29.11;46.79;98387.50;5118763;27;40420;-85
2023/06/30 08:04:28;;;;;;;4.87;4.47;;;;;;;29.19;47.09;98379.03;5118845;27;40668;-87
2023/06/30 08:06:56;;;;;;;5.00;4.23;;;;;;;29.54;47.29;98391.03;5118737;27;41998;-81
2023/06/30 08:09:23;;;;;;;5.60;4.83;;;;;;;29.81;46.35;98401.59;5135883;27;41304;-81
2023/06/30 08:11:51;;;;;;;4.70;4.30;;;;;;;30.06;44.95;98405.06;5135127;27;41487;-81
2023/06/30 08:14:19;;;;;;;5.60;4.93;;;;;;;30.18;44.23;98380.53;5118565;27;40741;-90
2023/06/30 08:16:48;;;;;;;4.80;4.30;;;;;;;30.47;44.23;98397.94;5118381;27;41790;-84
2023/06/30 08:19:16;;;;;;;5.10;4.70;;;;;;;30.69;44.34;98399.06;5118798;27;42617;-82
2023/06/30 08:21:44;;;;;;;5.27;4.33;;;;;;;30.66;43.29;98394.09;5135064;27;41034;-83
2023/06/30 08:24:11;;;;;;;4.83;4.23;;;;;;;30.80;42.77;98394.69;5118475;27;40664;-82
2023/06/30 08:26:39;;;;;;;4.63;4.23;;;;;;;30.79;42.97;98399.31;5117816;27;41769;-82
2023/06/30 08:29:06;;;;;;;4.57;4.07;;;;;;;30.79;42.92;98354.75;5136027;27;41360;-85
2023/06/30 08:31:34;;;;;;;7.43;4.97;;;;;;;31.37;41.93;98393.03;5117322;27;39945;-79
2023/06/30 08:34:04;;;;;;;5.70;4.40;;;;;;;31.82;41.59;98400.56;5135508;27;41883;-82
2023/06/30 08:36:32;;;;;;;4.83;4.37;;;;;;;32.18;41.10;98408.41;5152997;27;42969;-81
2023/06/30 08:39:00;;;;;;;5.43;4.63;;;;;;;32.51;40.40;98384.91;5153941;27;42270;-83
2023/06/30 08:41:30;;;;;;;5.07;4.57;;;;;;;32.99;39.46;98409.84;5134579;27;41045;-84
2023/06/30 08:43:59;;;;;;;5.30;4.80;;;;;;;33.22;38.59;98408.81;5134971;27;41864;-89
2023/06/30 08:46:29;;;;;;;4.57;4.17;;;;;;;33.30;37.87;98416.63;5153163;27;42686;-83
2023/06/30 08:48:57;;;;;;;4.13;3.80;;;;;;;33.32;38.21;98408.97;5135342;27;42364;-81
2023/06/30 08:51:26;;;;;;;4.80;4.40;;;;;;;33.40;38.07;98419.50;5134683;27;41974;-87
2023/06/30 08:53:55;;;;;;;4.87;4.30;;;;;;;33.37;38.46;98424.69;5117869;27;40732;-86
2023/06/30 08:56:23;;;;;;;5.33;4.83;;;;;;;33.33;37.11;98434.53;5117678;27;41450;-85
2023/06/30 08:58:51;;;;;;;4.40;3.93;;;;;;;33.25;37.75;98427.56;5135438;27;42860;-83
2023/06/30 09:01:20;;;;;;;5.23;4.33;;;;;;;32.95;37.72;98389.47;5135037;27;40136;-85
2023/06/30 09:03:48;;;;;;;5.07;4.07;;;;;;;33.03;37.77;98423.88;5136499;27;40928;-85
2023/06/30 09:06:17;;;;;;;4.80;4.20;;;;;;;32.73;38.18;98410.53;5134665;27;43192;-82
2023/06/30 09:08:53;;;;;;;5.47;4.20;;;;;;;32.61;38.73;98417.97;5118529;27;41420;-83
2023/06/30 09:11:24;;;;;;;4.70;4.30;;;;;;;32.43;38.76;98414.38;5118212;27;40195;-81
2023/06/30 09:13:54;;;;;;;3.90;3.60;;;;;;;32.50;38.96;98411.47;5134575;27;42259;-77
2023/06/30 09:16:23;;;;;;;4.40;4.00;;;;;;;32.48;38.67;98406.25;5152025;27;42708;-77
2023/06/30 09:18:51;;;;;;;4.50;4.10;;;;;;;32.44;38.62;98407.81;5133438;27;42232;-76
2023/06/30 09:21:19;;;;;;;5.53;4.80;;;;;;;32.44;38.46;98416.03;5151953;27;40908;-75
2023/06/30 09:23:48;;;;;;;4.70;4.30;;;;;;;32.44;38.60;98412.47;5152072;27;41956;-73
2023/06/30 09:26:18;;;;;;;3.93;3.60;;;;;;;32.59;38.45;98420.13;5151728;27;42769;-78
2023/06/30 09:28:47;;;;;;;4.73;4.30;;;;;;;32.60;38.46;98416.31;5133453;27;42768;-76
2023/06/30 09:31:16;;;;;;;4.73;4.33;;;;;;;32.42;38.82;98407.22;5151165;27;40992;-75
2023/06/30 09:33:47;;;;;;;4.40;4.10;;;;;;;32.39;39.12;98410.44;5133152;27;41541;-76
2023/06/30 09:36:17;;;;;;;5.73;4.90;;;;;;;32.25;39.01;98408.28;5115685;27;42399;-74
2023/06/30 09:38:45;;;;;;;4.80;4.40;;;;;;;32.11;39.67;98397.59;5133317;27;42833;-75
2023/06/30 09:41:21;;;;;;;4.73;4.33;;;;;;;32.06;39.71;98404.88;5133183;27;41078;-75
2023/06/30 09:43:57;;;;;;;6.43;4.17;;;;;;;31.99;40.15;98398.72;5149041;27;42664;-77
2023/06/30 09:46:25;;;;;;;4.90;4.40;;;;;;;31.95;39.91;98406.59;5129769;27;43796;-76
2023/06/30 09:48:55;;;;;;;4.93;4.43;;;;;;;31.92;40.28;98406.22;5115786;27;42319;-74
2023/06/30 09:51:23;;;;;;;5.73;5.23;;;;;;;31.85;40.08;98405.56;5132996;27;41963;-75
2023/06/30 09:53:53;;;;;;;6.10;4.97;;;;;;;31.73;40.52;98395.47;5133713;27;42725;-78
2023/06/30 09:56:23;;;;;;;5.37;4.57;;;;;;;31.64;40.88;98394.22;5116194;27;42987;-79
2023/06/30 09:58:55;;;;;;;5.30;4.80;;;;;;;31.60;41.17;98384.78;5134294;27;41246;-81
2023/06/30 10:01:23;;;;;;;4.47;4.07;;;;;;;31.58;41.28;98386.91;5149256;27;40752;-82
2023/06/30 10:03:54;;;;;;;4.27;3.87;;;;;;;31.61;40.86;98389.19;5134038;27;41876;-79
2023/06/30 10:06:23;;;;;;;4.40;4.10;;;;;;;31.67;40.86;98392.88;5130066;27;43058;-77
2023/06/30 10:08:51;;;;;;;6.37;4.47;;;;;;;31.85;40.56;98391.88;5151995;27;42376;-77
2023/06/30 10:11:23;;;;;;;4.90;4.30;;;;;;;31.97;40.09;98401.69;5151569;27;41011;-76
2023/06/30 10:13:54;;;;;;;4.63;4.13;;;;;;;32.08;39.13;98380.81;5151677;27;41612;-75
2023/06/30 10:16:23;;;;;;;5.57;5.07;;;;;;;32.51;38.38;98401.34;5132928;27;42868;-75
2023/06/30 10:18:52;;;;;;;4.47;4.07;;;;;;;32.75;38.07;98408.38;5132957;27;41395;-77
2023/06/30 10:21:20;;;;;;;7.23;4.40;;;;;;;33.07;37.32;98403.91;5132854;27;41151;-76
2023/06/30 10:23:50;;;;;;;6.63;4.77;;;;;;;33.24;37.12;98405.84;5132381;27;42082;-77
2023/06/30 10:26:20;;;;;;;5.40;4.27;;;;;;;33.47;37.03;98411.09;5151174;27;42597;-77
2023/06/30 10:28:49;;;;;;;6.13;4.60;;;;;;;33.72;35.98;98422.44;5151222;27;42946;-78
2023/06/30 10:31:17;;;;;;;4.70;4.20;;;;;;;33.86;35.59;98420.16;5115615;27;39999;-77
2023/06/30 10:33:45;;;;;;;5.00;4.60;;;;;;;33.89;35.49;98406.72;5132899;27;41725;-82
2023/06/30 10:36:14;;;;;;;4.47;4.07;;;;;;;33.98;35.32;98414.53;5132478;27;42541;-76
2023/06/30 10:38:46;;;;;;;5.30;4.10;;;;;;;34.04;34.95;98416.22;5151613;27;42258;-80
2023/06/30 10:41:17;;;;;;;4.83;4.27;;;;;;;34.28;34.48;98423.13;5148406;27;40757;-84
2023/06/30 10:44:11;;;;;;;4.80;4.40;;;;;;;34.45;34.24;98417.50;5119421;27;41378;-80
2023/06/30 10:46:52;;;;;;;5.90;4.60;;;;;;;34.75;34.55;98400.44;5119158;27;42390;-79
2023/06/30 10:49:23;;;;;;;4.97;4.57;;;;;;;34.99;34.37;98378.94;5119380;27;41509;-85
2023/06/30 10:51:51;;;;;;;5.30;4.43;;;;;;;35.25;32.71;98411.00;5133604;27;41900;-79
2023/06/30 10:54:24;;;;;;;5.50;5.00;;;;;;;35.17;32.41;98387.56;5136872;27;42410;-85
2023/06/30 10:56:52;;;;;;;4.43;4.00;;;;;;;35.41;32.75;98409.19;5136716;27;43059;-82
2023/06/30 10:59:25;;;;;;;5.07;4.67;;;;;;;35.60;32.49;98402.16;5137001;27;42568;-79
2023/06/30 11:02:12;;;;;;;5.50;5.00;;;;;;;35.94;32.75;98397.06;5119738;27;40097;-82
2023/06/30 11:04:41;;;;;;;5.60;4.77;;;;;;;36.17;32.30;98398.50;5135969;27;40808;-79
2023/06/30 11:07:10;;;;;;;5.80;5.17;;;;;;;36.17;32.04;98401.25;5136687;27;43754;-79
2023/06/30 11:09:58;;;;;;;5.27;4.77;;;;;;;35.74;31.90;98385.94;5154678;27;42872;-84
2023/06/30 11:12:27;;;;;;;5.87;5.27;;;;;;;35.45;32.29;98393.81;5136143;27;41013;-82
2023/06/30 11:14:58;;;;;;;5.87;5.17;;;;;;;35.55;32.84;98371.81;5119589;27;40224;-86
2023/06/30 11:17:29;;;;;;;6.37;5.57;;;;;;;35.71;31.24;98381.81;5137482;27;41894;-90
2023/06/30 11:20:10;;;;;;;6.77;6.10;;;;;;;36.04;31.37;98399.84;5118686;27;41464;-82
2023/06/30 11:22:38;;;;;;;8.10;7.00;;;;;;;35.75;31.84;98402.22;5119904;27;41153;-84
2023/06/30 11:25:13;;;;;;;7.50;6.80;;;;;;;35.02;33.36;98373.69;5117689;27;40769;-88
2023/06/30 11:27:42;;;;;;;8.20;7.40;;;;;;;34.45;34.08;98368.84;5118211;27;41579;-87
2023/06/30 11:30:11;;;;;;;8.27;7.57;;;;;;;33.99;34.73;98394.19;5119249;27;41303;-85
2023/06/30 11:32:41;;;;;;;10.50;8.17;;;;;;;33.54;35.23;98376.03;5120044;27;39981;-85
2023/06/30 11:35:13;;;;;;;8.00;7.20;;;;;;;33.05;36.15;98359.44;5118596;27;42280;-90
2023/06/30 11:37:41;;;;;;;9.27;8.33;;;;;;;32.80;36.27;98364.53;5119536;27;41679;-86
2023/06/30 11:40:09;;;;;;;9.23;8.03;;;;;;;32.71;37.13;98374.25;5119515;27;41653;-80
2023/06/30 11:42:40;;;;;;;9.33;8.33;;;;;;;32.69;37.23;98370.94;5149367;27;41093;-83